createdAt,value
2018-10-18T00:02:11.302Z,101813.34
2018-10-18T00:04:38.144Z,101820.51
2018-10-18T00:07:05.460Z,101811.72
2018-10-18T00:09:32.392Z,101816.48
2018-10-18T00:11:59.333Z,101810.47
2018-10-18T00:14:26.324Z,101813.88
2018-10-18T00:16:53.236Z,101814.27
2018-10-18T00:19:20.202Z,101816.84
2018-10-18T00:21:47.126Z,101815.50
2018-10-18T00:24:14.060Z,101816.94
2018-10-18T00:26:40.966Z,101818.19
2018-10-18T00:29:07.889Z,101815.16
2018-10-18T00:31:34.805Z,101818.52
2018-10-18T00:34:01.747Z,101809.05
2018-10-18T00:36:28.672Z,101805.67
2018-10-18T00:38:55.612Z,101820.02
2018-10-18T00:41:22.623Z,101816.84
2018-10-18T00:43:49.557Z,101820.57
2018-10-18T00:46:16.457Z,101822.25
2018-10-18T00:48:43.373Z,101824.23
2018-10-18T00:51:10.268Z,101827.14
2018-10-18T00:53:37.206Z,101823.61
2018-10-18T00:56:04.256Z,101823.83
2018-10-18T00:58:31.144Z,101831.88
2018-10-18T01:00:58.079Z,101834.94
2018-10-18T01:03:24.993Z,101832.28
2018-10-18T01:05:51.961Z,101836.34
2018-10-18T01:08:18.905Z,101828.89
2018-10-18T01:10:45.824Z,101838.70
2018-10-18T01:13:12.738Z,101837.28
2018-10-18T01:15:39.669Z,101838.28
2018-10-18T01:18:06.872Z,101834.98
2018-10-18T01:20:33.749Z,101832.87
2018-10-18T01:23:00.694Z,101828.28
2018-10-18T01:25:27.625Z,101830.52
2018-10-18T01:27:54.616Z,101826.09
2018-10-18T01:30:21.577Z,101822.75
2018-10-18T01:32:48.484Z,101817.17
2018-10-18T01:35:15.397Z,101816.65
2018-10-18T01:37:42.360Z,101818.28
2018-10-18T01:40:09.293Z,101825.34
2018-10-18T01:42:36.218Z,101826.07
2018-10-18T01:45:03.350Z,101817.86
2018-10-18T01:47:30.301Z,101825.91
2018-10-18T01:49:57.281Z,101827.64
2018-10-18T01:52:24.213Z,101833.17
2018-10-18T01:54:51.151Z,101831.88
2018-10-18T01:57:18.093Z,101838.61
2018-10-18T01:59:45.055Z,101841.32
2018-10-18T02:02:12.059Z,101837.59
2018-10-18T02:04:39.003Z,101839.22
2018-10-18T02:07:05.803Z,101837.40
2018-10-18T02:09:32.729Z,101832.76
2018-10-18T02:11:59.741Z,101832.37
2018-10-18T02:14:26.628Z,101828.24
2018-10-18T02:16:53.572Z,101824.61
2018-10-18T02:19:20.547Z,101812.26
2018-10-18T02:21:47.471Z,101817.94
2018-10-18T02:24:14.461Z,101813.37
2018-10-18T02:26:41.365Z,101818.70
2018-10-18T02:29:08.311Z,101826.55
2018-10-18T02:31:35.349Z,101825.23
2018-10-18T02:34:02.310Z,101822.95
2018-10-18T02:36:29.246Z,101834.71
2018-10-18T02:38:56.156Z,101839.33
2018-10-18T02:41:23.074Z,101833.09
2018-10-18T02:43:49.972Z,101828.50
2018-10-18T02:46:16.900Z,101832.06
2018-10-18T02:48:43.858Z,101836.34
2018-10-18T02:51:10.773Z,101841.93
2018-10-18T02:53:37.690Z,101848.75
2018-10-18T02:56:04.633Z,101854.72
2018-10-18T02:58:31.518Z,101853.17
2018-10-18T03:00:58.436Z,101861.27
2018-10-18T03:03:25.341Z,101854.83
2018-10-18T03:05:52.327Z,101843.06
2018-10-18T03:08:19.177Z,101858.14
2018-10-18T03:10:46.097Z,101858.73
2018-10-18T03:13:13.013Z,101856.55
2018-10-18T03:15:39.937Z,101854.86
2018-10-18T03:18:07.167Z,101845.08
2018-10-18T03:20:34.055Z,101854.55
2018-10-18T03:23:01.001Z,101855.57
2018-10-18T03:25:27.917Z,101852.70
2018-10-18T03:27:54.866Z,101856.59
2018-10-18T03:30:21.784Z,101853.20
2018-10-18T03:32:48.728Z,101850.00
2018-10-18T03:35:15.667Z,101852.16
2018-10-18T03:37:42.649Z,101851.73
2018-10-18T03:40:09.948Z,101855.86
2018-10-18T03:42:36.907Z,101852.76
2018-10-18T03:45:04.845Z,101857.84
2018-10-18T03:47:31.802Z,101855.58
2018-10-18T03:49:58.737Z,101852.38
2018-10-18T03:52:25.685Z,101846.44
2018-10-18T03:54:52.625Z,101842.04
2018-10-18T03:57:19.598Z,101844.55
2018-10-18T03:59:46.648Z,101840.82
2018-10-18T04:02:13.567Z,101842.90
2018-10-18T04:04:41.086Z,101843.23
2018-10-18T04:07:08.758Z,101844.25
2018-10-18T04:09:35.718Z,101850.55
2018-10-18T04:12:02.702Z,101852.17
2018-10-18T04:14:29.614Z,101851.02
2018-10-18T04:16:56.571Z,101852.54
2018-10-18T04:19:23.492Z,101849.36
2018-10-18T04:21:50.433Z,101842.92
2018-10-18T04:24:17.471Z,101841.10
2018-10-18T04:26:44.382Z,101852.27
2018-10-18T04:29:11.360Z,101855.77
2018-10-18T04:31:38.307Z,101862.23
2018-10-18T04:34:05.257Z,101854.17
2018-10-18T04:36:32.195Z,101866.19
2018-10-18T04:38:59.131Z,101871.10
2018-10-18T04:41:26.091Z,101865.02
2018-10-18T04:43:53.042Z,101872.66
2018-10-18T04:46:19.988Z,101875.85
2018-10-18T04:48:47.033Z,101877.89
2018-10-18T04:51:13.931Z,101875.52
2018-10-18T04:53:40.845Z,101882.93
2018-10-18T04:56:07.780Z,101881.52
2018-10-18T04:58:34.726Z,101886.09
2018-10-18T05:01:01.760Z,101880.28
2018-10-18T05:03:28.637Z,101883.82
2018-10-18T05:05:58.061Z,101890.92
2018-10-18T05:08:25.808Z,101889.77
2018-10-18T05:10:52.826Z,101899.77
2018-10-18T05:13:19.962Z,101890.98
2018-10-18T05:15:46.765Z,101894.30
2018-10-18T05:18:13.812Z,101893.28
2018-10-18T05:20:40.758Z,101888.52
2018-10-18T05:23:08.307Z,101888.33
2018-10-18T05:25:35.330Z,101895.96
2018-10-18T05:28:02.817Z,101888.63
2018-10-18T05:30:29.966Z,101894.03
2018-10-18T05:32:56.933Z,101889.96
2018-10-18T05:35:23.910Z,101896.67
2018-10-18T05:37:50.972Z,101899.05
2018-10-18T05:40:17.958Z,101903.98
2018-10-18T05:42:44.933Z,101906.22
2018-10-18T05:45:11.886Z,101912.93
2018-10-18T05:47:38.841Z,101908.04
2018-10-18T05:50:06.045Z,101921.91
2018-10-18T05:52:33.003Z,101926.67
2018-10-18T05:54:59.985Z,101931.41
2018-10-18T05:57:26.902Z,101932.42
2018-10-18T05:59:53.832Z,101938.67
2018-10-18T06:02:20.780Z,101942.92
2018-10-18T06:04:47.711Z,101939.41
2018-10-18T06:07:14.766Z,101942.95
2018-10-18T06:09:41.623Z,101943.14
2018-10-18T06:12:08.590Z,101950.41
2018-10-18T06:14:35.528Z,101958.52
2018-10-18T06:17:02.482Z,101963.74
2018-10-18T06:19:29.422Z,101959.66
2018-10-18T06:21:56.357Z,101968.64
2018-10-18T06:24:23.379Z,101965.73
2018-10-18T06:26:50.313Z,101966.07
2018-10-18T06:29:17.347Z,101970.27
2018-10-18T06:31:44.236Z,101967.56
2018-10-18T06:34:11.169Z,101971.63
2018-10-18T06:36:38.145Z,101972.65
2018-10-18T06:39:06.903Z,101974.67
2018-10-18T06:41:33.851Z,101971.96
2018-10-18T06:44:00.815Z,101971.94
2018-10-18T06:46:28.005Z,101968.47
2018-10-18T06:48:55.016Z,101981.33
2018-10-18T06:51:21.939Z,101985.92
2018-10-18T06:53:48.882Z,101992.03
2018-10-18T06:56:15.826Z,101989.80
2018-10-18T06:58:42.773Z,101996.22
2018-10-18T07:01:09.733Z,101988.42
2018-10-18T07:03:36.666Z,101991.45
2018-10-18T07:06:04.160Z,102001.22
2018-10-18T07:08:31.110Z,101999.83
2018-10-18T07:10:58.144Z,101996.43
2018-10-18T07:13:25.038Z,102001.00
2018-10-18T07:15:51.969Z,101998.25
2018-10-18T07:18:18.977Z,102001.49
2018-10-18T07:20:45.913Z,102004.14
2018-10-18T07:23:12.883Z,102008.27
2018-10-18T07:25:39.833Z,102006.42
2018-10-18T07:28:06.791Z,102004.20
2018-10-18T07:30:33.726Z,102001.96
2018-10-18T07:33:00.680Z,102005.97
2018-10-18T07:35:27.636Z,101999.16
2018-10-18T07:37:54.598Z,102001.97
2018-10-18T07:40:21.541Z,102002.96
2018-10-18T07:42:48.490Z,102007.46
2018-10-18T07:45:15.454Z,102005.78
2018-10-18T07:47:43.098Z,102011.06
2018-10-18T07:50:10.434Z,102009.81
2018-10-18T07:52:37.388Z,102015.03
2018-10-18T07:55:05.227Z,102013.34
2018-10-18T07:57:32.243Z,102015.92
2018-10-18T07:59:59.235Z,102014.11
2018-10-18T08:02:26.133Z,102015.96
2018-10-18T08:04:53.071Z,102016.89
2018-10-18T08:07:20.026Z,102016.76
2018-10-18T08:09:46.980Z,102026.52
2018-10-18T08:12:13.954Z,102034.88
2018-10-18T08:14:40.933Z,102040.30
2018-10-18T08:17:07.886Z,102039.28
2018-10-18T08:19:34.853Z,102038.94
2018-10-18T08:22:01.798Z,102043.77
2018-10-18T08:24:28.754Z,102033.94
2018-10-18T08:26:55.702Z,102043.77
2018-10-18T08:29:22.657Z,102041.98
2018-10-18T08:31:49.629Z,102041.62
2018-10-18T08:34:16.560Z,102046.85
2018-10-18T08:36:43.490Z,102042.06
2018-10-18T08:39:11.333Z,102040.48
2018-10-18T08:41:38.265Z,102041.73
2018-10-18T08:44:05.251Z,102053.05
2018-10-18T08:46:32.174Z,102054.87
2018-10-18T08:48:59.188Z,102052.32
2018-10-18T08:51:26.096Z,102059.56
2018-10-18T08:53:53.026Z,102053.67
2018-10-18T08:56:20.025Z,102059.70
2018-10-18T08:58:46.945Z,102062.28
2018-10-18T09:01:13.946Z,102068.59
2018-10-18T09:03:40.878Z,102063.56
2018-10-18T09:06:07.845Z,102071.43
2018-10-18T09:08:34.784Z,102079.95
2018-10-18T09:11:01.763Z,102078.70
2018-10-18T09:13:28.691Z,102087.53
2018-10-18T09:15:55.713Z,102086.51
2018-10-18T09:18:22.581Z,102092.91
2018-10-18T09:20:49.558Z,102102.75
2018-10-18T09:23:16.514Z,102092.59
2018-10-18T09:25:43.518Z,102103.86
2018-10-18T09:28:10.469Z,102109.97
2018-10-18T09:30:37.414Z,102105.16
2018-10-18T09:33:04.369Z,102099.38
2018-10-18T09:35:31.316Z,102109.28
2018-10-18T09:37:58.266Z,102116.50
2018-10-18T09:40:25.213Z,102123.26
2018-10-18T09:42:52.202Z,102130.20
2018-10-18T09:45:19.134Z,102117.89
2018-10-18T09:47:46.110Z,102133.80
2018-10-18T09:50:13.066Z,102130.88
2018-10-18T09:52:40.071Z,102133.03
2018-10-18T09:55:08.644Z,102135.55
2018-10-18T09:57:35.580Z,102139.06
2018-10-18T10:00:02.915Z,102142.66
2018-10-18T10:02:36.562Z,102139.97
2018-10-18T10:05:03.752Z,102145.04
2018-10-18T10:07:30.692Z,102150.95
2018-10-18T10:09:57.633Z,102148.78
2018-10-18T10:12:24.578Z,102151.95
2018-10-18T10:14:51.501Z,102145.52
2018-10-18T10:17:18.451Z,102150.45
2018-10-18T10:19:45.397Z,102149.73
2018-10-18T10:22:12.341Z,102152.09
2018-10-18T10:24:39.383Z,102156.22
2018-10-18T10:27:06.326Z,102157.03
2018-10-18T10:29:33.251Z,102161.72
2018-10-18T10:32:00.183Z,102159.18
2018-10-18T10:34:27.130Z,102164.95
2018-10-18T10:36:54.207Z,102161.57
2018-10-18T10:39:22.022Z,102164.42
2018-10-18T10:41:48.986Z,102170.31
2018-10-18T10:44:16.000Z,102175.66
2018-10-18T10:46:42.894Z,102175.30
2018-10-18T10:49:09.955Z,102163.78
2018-10-18T10:51:37.105Z,102178.61
2018-10-18T10:54:05.162Z,102181.16
2018-10-18T10:56:32.105Z,102178.92
2018-10-18T10:58:59.322Z,102176.11
2018-10-18T11:01:27.042Z,102182.46
2018-10-18T11:03:55.222Z,102184.05
2018-10-18T11:06:22.450Z,102175.92
2018-10-18T11:08:49.403Z,102167.27
2018-10-18T11:11:16.869Z,102176.77
2018-10-18T11:13:43.894Z,102174.95
2018-10-18T11:16:10.837Z,102176.84
2018-10-18T11:18:38.432Z,102178.85
2018-10-18T11:21:06.553Z,102176.31
2018-10-18T11:23:33.993Z,102170.75
2018-10-18T11:26:00.993Z,102176.77
2018-10-18T11:28:27.945Z,102177.62
2018-10-18T11:30:54.888Z,102174.96
2018-10-18T11:33:21.796Z,102175.11
2018-10-18T11:35:48.712Z,102177.91
2018-10-18T11:38:15.769Z,102175.02
2018-10-18T11:40:42.977Z,102174.11
2018-10-18T11:43:10.320Z,102171.95
2018-10-18T11:45:37.320Z,102176.61
2018-10-18T11:48:04.740Z,102176.40
2018-10-18T11:50:31.616Z,102176.48
2018-10-18T11:52:58.828Z,102169.80
2018-10-18T11:55:25.880Z,102171.91
2018-10-18T11:57:52.773Z,102169.85
2018-10-18T12:00:19.704Z,102173.07
2018-10-18T12:02:47.919Z,102170.28
2018-10-18T12:05:14.936Z,102168.08
2018-10-18T12:07:41.854Z,102170.18
2018-10-18T12:10:09.691Z,102165.53
2018-10-18T12:12:36.600Z,102166.28
2018-10-18T12:15:04.061Z,102158.15
2018-10-18T12:17:30.954Z,102163.91
2018-10-18T12:19:57.863Z,102162.00
2018-10-18T12:22:24.753Z,102164.05
2018-10-18T12:24:51.668Z,102168.71
2018-10-18T12:27:18.572Z,102164.61
2018-10-18T12:29:45.462Z,102172.24
2018-10-18T12:32:12.411Z,102178.10
2018-10-18T12:34:39.273Z,102179.91
2018-10-18T12:37:06.181Z,102171.47
2018-10-18T12:39:33.130Z,102174.25
2018-10-18T12:42:00.060Z,102172.39
2018-10-18T12:44:31.567Z,102169.57
2018-10-18T12:46:58.504Z,102176.59
2018-10-18T12:49:25.412Z,102171.20
2018-10-18T12:51:52.321Z,102176.52
2018-10-18T12:54:19.373Z,102174.06
2018-10-18T12:56:46.136Z,102179.40
2018-10-18T12:59:13.188Z,102169.34
2018-10-18T13:01:40.158Z,102168.63
2018-10-18T13:04:07.071Z,102175.77
2018-10-18T13:06:34.005Z,102172.33
2018-10-18T13:09:00.937Z,102174.12
2018-10-18T13:11:28.138Z,102173.73
2018-10-18T13:13:55.077Z,102172.05
2018-10-18T13:16:21.984Z,102173.73
2018-10-18T13:18:48.924Z,102168.80
2018-10-18T13:21:15.833Z,102182.34
2018-10-18T13:23:42.740Z,102174.48
2018-10-18T13:26:09.799Z,102171.42
2018-10-18T13:28:36.666Z,102172.58
2018-10-18T13:31:04.036Z,102179.81
2018-10-18T13:33:30.946Z,102179.27
2018-10-18T13:35:57.887Z,102179.64
2018-10-18T13:38:24.789Z,102193.09
2018-10-18T13:40:51.849Z,102191.24
2018-10-18T13:43:19.406Z,102198.27
2018-10-18T13:45:46.416Z,102195.72
2018-10-18T13:48:13.427Z,102193.53
2018-10-18T13:50:40.252Z,102195.98
2018-10-18T13:53:07.245Z,102191.58
2018-10-18T13:55:34.480Z,102203.60
2018-10-18T13:58:01.439Z,102205.36
2018-10-18T14:00:29.360Z,102205.82
2018-10-18T14:02:56.354Z,102202.31
2018-10-18T14:05:23.738Z,102203.70
2018-10-18T14:07:51.651Z,102209.17
2018-10-18T14:10:18.513Z,102205.48
2018-10-18T14:12:45.424Z,102203.63
2018-10-18T14:15:12.355Z,102204.19
2018-10-18T14:17:39.708Z,102204.52
2018-10-18T14:20:06.838Z,102200.42
2018-10-18T14:22:34.065Z,102198.40
2018-10-18T14:25:00.967Z,102198.49
2018-10-18T14:27:28.261Z,102202.37
2018-10-18T14:29:55.168Z,102198.30
2018-10-18T14:32:22.149Z,102203.86
2018-10-18T14:34:49.399Z,102201.34
2018-10-18T14:37:16.326Z,102199.52
2018-10-18T14:39:43.245Z,102203.59
2018-10-18T14:42:10.409Z,102195.45
2018-10-18T14:44:37.835Z,102197.83
2018-10-18T14:47:04.733Z,102204.83
2018-10-18T14:49:31.934Z,102210.81
2018-10-18T14:51:58.947Z,102218.07
2018-10-18T14:54:25.833Z,102212.67
2018-10-18T14:56:52.756Z,102211.31
2018-10-18T14:59:19.822Z,102215.02
2018-10-18T15:01:46.642Z,102205.58
2018-10-18T15:04:13.631Z,102210.70
2018-10-18T15:06:40.541Z,102214.11
2018-10-18T15:09:07.999Z,102216.30
2018-10-18T15:11:34.913Z,102224.97
2018-10-18T15:14:02.050Z,102215.91
2018-10-18T15:16:28.965Z,102220.81
2018-10-18T15:18:55.915Z,102221.89
2018-10-18T15:21:22.844Z,102225.16
2018-10-18T15:23:49.728Z,102228.25
2018-10-18T15:26:16.690Z,102228.47
2018-10-18T15:28:43.577Z,102216.20
2018-10-18T15:31:10.501Z,102219.27
2018-10-18T15:33:37.404Z,102214.74
2018-10-18T15:36:04.436Z,102215.97
2018-10-18T15:38:31.464Z,102221.27
2018-10-18T15:40:58.368Z,102212.00
2018-10-18T15:43:25.331Z,102226.08
2018-10-18T15:45:52.297Z,102230.34
2018-10-18T15:48:19.185Z,102221.26
2018-10-18T15:50:46.105Z,102222.28
2018-10-18T15:53:13.062Z,102228.05
2018-10-18T15:55:39.971Z,102226.39
2018-10-18T15:58:06.901Z,102224.38
2018-10-18T16:00:33.789Z,102231.86
2018-10-18T16:03:00.736Z,102232.92
2018-10-18T16:05:27.586Z,102237.63
2018-10-18T16:07:54.501Z,102241.02
2018-10-18T16:10:21.424Z,102234.62
2018-10-18T16:12:48.354Z,102242.41
2018-10-18T16:15:15.294Z,102245.81
2018-10-18T16:17:42.344Z,102246.67
2018-10-18T16:20:09.886Z,102245.67
2018-10-18T16:22:37.457Z,102252.95
2018-10-18T16:25:05.167Z,102261.39
2018-10-18T16:27:32.093Z,102257.87
2018-10-18T16:29:59.038Z,102262.77
2018-10-18T16:32:26.145Z,102262.05
2018-10-18T16:34:53.126Z,102269.66
2018-10-18T16:37:20.093Z,102270.00
2018-10-18T16:39:47.020Z,102279.61
2018-10-18T16:42:13.968Z,102277.73
2018-10-18T16:44:40.917Z,102277.09
2018-10-18T16:47:07.848Z,102290.22
2018-10-18T16:49:34.782Z,102295.11
2018-10-18T16:52:01.795Z,102292.41
2018-10-18T16:54:28.700Z,102294.61
2018-10-18T16:56:55.584Z,102291.02
2018-10-18T16:59:22.516Z,102293.70
2018-10-18T17:01:49.446Z,102298.05
2018-10-18T17:04:16.480Z,102301.88
2018-10-18T17:06:43.333Z,102303.48
2018-10-18T17:09:10.729Z,102303.90
2018-10-18T17:11:37.848Z,102302.81
2018-10-18T17:14:04.831Z,102297.82
2018-10-18T17:16:31.725Z,102304.70
2018-10-18T17:18:58.677Z,102302.61
2018-10-18T17:21:25.620Z,102306.26
2018-10-18T17:23:52.718Z,102315.99
2018-10-18T17:26:19.696Z,102316.42
2018-10-18T17:28:46.575Z,102313.14
2018-10-18T17:31:13.532Z,102311.84
2018-10-18T17:33:40.492Z,102319.42
2018-10-18T17:36:07.527Z,102322.05
2018-10-18T17:38:34.425Z,102328.14
2018-10-18T17:41:01.404Z,102327.95
2018-10-18T17:43:28.312Z,102333.48
2018-10-18T17:45:55.232Z,102339.58
2018-10-18T17:48:22.161Z,102342.54
2018-10-18T17:50:49.136Z,102339.54
2018-10-18T17:53:16.081Z,102338.30
2018-10-18T17:55:43.036Z,102343.34
2018-10-18T17:58:10.060Z,102346.33
2018-10-18T18:00:36.956Z,102339.40
2018-10-18T18:03:03.900Z,102341.87
2018-10-18T18:05:30.844Z,102346.14
2018-10-18T18:07:57.889Z,102343.60
2018-10-18T18:10:24.857Z,102347.29
2018-10-18T18:12:51.835Z,102344.78
2018-10-18T18:15:19.426Z,102350.90
2018-10-18T18:17:46.480Z,102349.05
2018-10-18T18:20:13.531Z,102355.23
2018-10-18T18:22:40.748Z,102353.41
2018-10-18T18:25:09.284Z,102358.09
2018-10-18T18:27:36.385Z,102360.34
2018-10-18T18:30:05.008Z,102352.71
2018-10-18T18:32:32.088Z,102358.25
2018-10-18T18:34:59.065Z,102358.89
2018-10-18T18:37:26.084Z,102361.42
2018-10-18T18:39:53.013Z,102364.35
2018-10-18T18:42:20.165Z,102371.31
2018-10-18T18:44:47.222Z,102374.63
2018-10-18T18:47:14.602Z,102377.33
2018-10-18T18:49:41.698Z,102377.52
2018-10-18T18:52:09.198Z,102380.00
2018-10-18T18:54:36.229Z,102375.89
2018-10-18T18:57:03.295Z,102378.45
2018-10-18T18:59:30.417Z,102381.83
2018-10-18T19:01:58.015Z,102377.15
2018-10-18T19:04:24.940Z,102387.19
2018-10-18T19:06:52.519Z,102388.27
2018-10-18T19:09:19.501Z,102393.16
2018-10-18T19:11:46.963Z,102390.38
2018-10-18T19:14:14.311Z,102395.05
2018-10-18T19:16:41.396Z,102397.02
2018-10-18T19:19:08.464Z,102397.95
2018-10-18T19:21:35.749Z,102393.47
2018-10-18T19:24:03.029Z,102395.61
2018-10-18T19:26:30.051Z,102400.00
2018-10-18T19:29:03.784Z,102397.88
2018-10-18T19:31:30.837Z,102395.10
2018-10-18T19:33:57.841Z,102399.23
2018-10-18T19:36:25.104Z,102404.13
2018-10-18T19:38:52.068Z,102403.62
2018-10-18T19:41:19.274Z,102400.00
2018-10-18T19:43:46.228Z,102402.33
2018-10-18T19:46:13.217Z,102402.12
2018-10-18T19:48:40.201Z,102401.30
2018-10-18T19:51:07.184Z,102401.52
2018-10-18T19:53:34.197Z,102400.94
2018-10-18T19:56:01.225Z,102411.94
2018-10-18T19:58:28.450Z,102410.34
2018-10-18T20:00:55.403Z,102418.05
2018-10-18T20:03:22.386Z,102422.63
2018-10-18T20:05:49.456Z,102419.84
2018-10-18T20:08:16.577Z,102425.98
2018-10-18T20:10:43.612Z,102428.48
2018-10-18T20:13:10.737Z,102425.44
2018-10-18T20:15:37.720Z,102425.80
2018-10-18T20:18:04.757Z,102425.12
2018-10-18T20:20:31.621Z,102422.69
2018-10-18T20:22:58.629Z,102431.69
2018-10-18T20:25:25.588Z,102426.25
2018-10-18T20:27:52.478Z,102425.27
2018-10-18T20:30:19.401Z,102433.99
2018-10-18T20:32:46.401Z,102429.30
2018-10-18T20:35:13.361Z,102435.66
2018-10-18T20:37:40.814Z,102442.84
2018-10-18T20:40:10.026Z,102440.31
2018-10-18T20:42:36.973Z,102437.56
2018-10-18T20:45:04.537Z,102445.53
2018-10-18T20:47:31.609Z,102441.97
2018-10-18T20:49:58.402Z,102439.54
2018-10-18T20:52:25.372Z,102433.86
2018-10-18T20:54:52.272Z,102437.88
2018-10-18T20:57:19.221Z,102444.48
2018-10-18T20:59:46.358Z,102444.84
2018-10-18T21:02:13.321Z,102449.28
2018-10-18T21:04:40.253Z,102445.77
2018-10-18T21:07:07.161Z,102441.02
2018-10-18T21:09:34.078Z,102441.95
2018-10-18T21:12:01.070Z,102442.49
2018-10-18T21:14:27.976Z,102438.87
2018-10-18T21:16:54.939Z,102436.08
2018-10-18T21:19:21.868Z,102439.02
2018-10-18T21:21:48.896Z,102437.92
2018-10-18T21:24:15.745Z,102438.40
2018-10-18T21:26:42.661Z,102446.70
2018-10-18T21:29:09.635Z,102438.58
2018-10-18T21:31:36.500Z,102440.21
2018-10-18T21:34:03.486Z,102439.05
2018-10-18T21:36:30.397Z,102445.42
2018-10-18T21:38:57.342Z,102442.85
2018-10-18T21:41:24.277Z,102442.41
2018-10-18T21:43:51.286Z,102449.73
2018-10-18T21:46:18.221Z,102454.14
2018-10-18T21:48:45.331Z,102450.45
2018-10-18T21:51:12.274Z,102453.75
2018-10-18T21:53:39.224Z,102452.69
2018-10-18T21:56:06.246Z,102450.98
2018-10-18T21:58:33.179Z,102446.09
2018-10-18T22:01:00.117Z,102448.30
2018-10-18T22:03:27.061Z,102447.20
2018-10-18T22:05:53.989Z,102444.30
2018-10-18T22:08:20.930Z,102438.77
2018-10-18T22:10:47.845Z,102446.95
2018-10-18T22:13:14.784Z,102448.19
2018-10-18T22:15:41.716Z,102444.77
2018-10-18T22:18:08.661Z,102451.98
2018-10-18T22:20:35.596Z,102443.45
2018-10-18T22:23:02.524Z,102447.25
2018-10-18T22:25:29.480Z,102448.59
2018-10-18T22:27:56.443Z,102439.84
2018-10-18T22:30:23.381Z,102437.66
2018-10-18T22:32:50.354Z,102440.08
2018-10-18T22:35:17.361Z,102440.09
2018-10-18T22:37:44.241Z,102442.42
2018-10-18T22:40:11.169Z,102438.29
2018-10-18T22:42:38.073Z,102433.17
2018-10-18T22:45:05.920Z,102445.11
2018-10-18T22:47:32.843Z,102441.84
2018-10-18T22:49:59.774Z,102444.16
2018-10-18T22:52:26.702Z,102447.08
2018-10-18T22:54:53.618Z,102441.86
2018-10-18T22:57:20.549Z,102440.67
2018-10-18T22:59:47.531Z,102440.67
2018-10-18T23:02:14.481Z,102438.87
2018-10-18T23:04:41.400Z,102435.32
2018-10-18T23:07:08.330Z,102438.63
2018-10-18T23:09:35.276Z,102445.06
2018-10-18T23:12:02.185Z,102442.53
2018-10-18T23:14:29.130Z,102444.61
2018-10-18T23:16:56.068Z,102446.79
2018-10-18T23:19:22.974Z,102445.58
2018-10-18T23:21:49.893Z,102445.58
2018-10-18T23:24:17.325Z,102450.67
2018-10-18T23:26:44.281Z,102449.83
2018-10-18T23:29:11.270Z,102445.08
2018-10-18T23:31:38.152Z,102440.22
2018-10-18T23:34:05.189Z,102440.22
2018-10-18T23:36:32.132Z,102439.95
2018-10-18T23:38:59.102Z,102434.73
2018-10-18T23:41:25.989Z,102436.67
2018-10-18T23:43:52.931Z,102441.43
2018-10-18T23:46:19.835Z,102443.36
2018-10-18T23:48:46.745Z,102431.78
2018-10-18T23:51:13.751Z,102434.73
2018-10-18T23:53:40.674Z,102432.66
2018-10-18T23:56:07.585Z,102436.06
2018-10-18T23:58:34.506Z,102423.37
